Aviation Digital Data Service (ADDS)

Output produced by METARs form (2332 UTC 15 February 2019)
found at http://www.aviationweather.gov/metar/data/
 
Forecast for: LTCI (VAN , TR)
Text: TAF LTCI 152240Z 1600/1609 07008KT 7000 SCT035 BKN080
Forecast period: 0000 to 0900 UTC 16 February 2019
Forecast type: FROM: standard forecast or significant change
Winds: from the ENE (70 degrees) at 9 MPH (8 knots; 4.1 m/s)
Visibility: 4 miles (7 km)
Ceiling: 8000 feet AGL
Clouds: scattered clouds at 3500 feet AGL
broken clouds at 8000 feet AGL
Weather: no significant weather forecast for this period